Time;durP1;ratioP1;P1;durP2;ratioP2;P2;SDS_P1;SDS_P2;PMS_P1;PMS_P2;Temp;Humidity;BMP_temperature;BMP_pressure;BME280_temperature;BME280_humidity;BME280_pressure;Samples;Min_cycle;Max_cycle;Signal;HPM_P1;HPM_P2
2022/11/14 00:00:46;;;;;;;;;;;7.40;99.90;;;;;;5156612;27;19911;-40
2022/11/14 00:03:11;;;;;;;;;;;7.40;99.90;;;;;;5156213;27;20297;-40
2022/11/14 00:05:38;;;;;;;;;;;7.40;99.90;;;;;;5157455;27;19934;-39
2022/11/14 00:08:04;;;;;;;;;;;7.40;99.90;;;;;;5157343;27;19907;-40
2022/11/14 00:10:29;;;;;;;;;;;7.40;99.90;;;;;;5156287;27;19908;-40
2022/11/14 00:12:54;;;;;;;;;;;7.40;99.90;;;;;;5157208;27;20369;-40
2022/11/14 00:15:20;;;;;;;;;;;7.40;99.90;;;;;;5156814;27;20022;-40
2022/11/14 00:17:45;;;;;;;;;;;7.40;99.90;;;;;;5156260;27;19907;-40
2022/11/14 00:20:12;;;;;;;;;;;7.40;99.90;;;;;;5156933;27;20296;-41
2022/11/14 00:22:37;;;;;;;;;;;7.40;99.90;;;;;;5156437;27;20370;-39
2022/11/14 00:25:03;;;;;;;;;;;7.40;99.90;;;;;;5156130;27;19997;-40
2022/11/14 00:27:28;;;;;;;;;;;7.40;99.90;;;;;;5156642;27;20373;-41
2022/11/14 00:29:54;;;;;;;;;;;7.40;99.90;;;;;;5156821;27;19907;-42
2022/11/14 00:32:21;;;;;;;;;;;7.40;99.90;;;;;;5155776;27;20002;-40
2022/11/14 00:34:47;;;;;;;;;;;7.40;99.90;;;;;;5156799;27;19973;-40
2022/11/14 00:37:12;;;;;;;;;;;7.40;99.90;;;;;;5156635;27;20564;-41
2022/11/14 00:39:38;;;;;;;;;;;7.40;99.90;;;;;;5155994;27;20358;-42
2022/11/14 00:42:03;;;;;;;;;;;7.40;99.90;;;;;;5156602;27;19930;-40
2022/11/14 00:44:28;;;;;;;;;;;7.40;99.90;;;;;;5156089;27;19935;-40
2022/11/14 00:46:54;;;;;;;;;;;7.40;99.90;;;;;;5154619;27;19907;-40
2022/11/14 00:49:19;;;;;;;;;;;7.40;99.90;;;;;;5155163;27;20371;-41
2022/11/14 00:51:45;;;;;;;;;;;7.40;99.90;;;;;;5153214;27;19915;-40
2022/11/14 00:54:10;;;;;;;;;;;7.40;99.90;;;;;;5153931;27;19911;-39
2022/11/14 00:56:36;;;;;;;;;;;7.40;99.90;;;;;;5154618;27;19917;-41
2022/11/14 00:59:01;;;;;;;;;;;7.40;99.90;;;;;;5154326;27;19921;-40
2022/11/14 01:01:27;;;;;;;;;;;7.30;99.90;;;;;;5154594;27;20288;-41
2022/11/14 01:03:52;;;;;;;;;;;7.30;99.90;;;;;;5155116;27;20005;-40
2022/11/14 01:06:18;;;;;;;;;;;7.20;99.90;;;;;;5153965;27;19963;-40
2022/11/14 01:08:44;;;;;;;;;;;7.20;99.90;;;;;;5155088;27;20373;-42
2022/11/14 01:11:10;;;;;;;;;;;7.20;99.90;;;;;;5155116;27;19907;-44
2022/11/14 01:13:36;;;;;;;;;;;7.10;99.90;;;;;;5154201;27;19911;-40
2022/11/14 01:16:02;;;;;;;;;;;7.00;99.90;;;;;;5154807;27;20285;-41
2022/11/14 01:18:27;;;;;;;;;;;7.00;99.90;;;;;;5154734;27;20389;-43
2022/11/14 01:20:53;;;;;;;;;;;7.00;99.90;;;;;;5153796;27;19915;-40
2022/11/14 01:23:18;;;;;;;;;;;6.90;99.90;;;;;;5154272;27;19923;-41
2022/11/14 01:25:44;;;;;;;;;;;7.00;99.90;;;;;;5154792;27;20391;-41
2022/11/14 01:28:19;;;;;;;;;;;6.90;99.90;;;;;;5154227;27;20404;-40
2022/11/14 01:30:44;;;;;;;;;;;6.90;99.90;;;;;;5154998;27;20258;-41
2022/11/14 01:33:10;;;;;;;;;;;6.90;99.90;;;;;;5154812;27;19914;-40
2022/11/14 01:35:37;;;;;;;;;;;6.90;99.90;;;;;;5153893;27;20388;-39
2022/11/14 01:38:03;;;;;;;;;;;6.80;99.90;;;;;;5154646;27;19907;-41
2022/11/14 01:40:29;;;;;;;;;;;6.80;99.90;;;;;;5154256;27;19914;-40
2022/11/14 01:43:09;;;;;;;;;;;6.80;99.90;;;;;;5153579;27;19919;-40
2022/11/14 01:45:55;;;;;;;;;;;6.80;99.90;;;;;;5091981;27;1748437;-40
2022/11/14 01:48:29;;;;;;;;;;;6.80;99.90;;;;;;5154436;27;19912;-41
2022/11/14 01:51:13;;;;;;;;;;;6.70;99.90;;;;;;5155044;27;20377;-41
2022/11/14 01:53:39;;;;;;;;;;;6.70;99.90;;;;;;5155287;27;20002;-40
2022/11/14 01:56:06;;;;;;;;;;;6.70;99.90;;;;;;5154646;27;19934;-41
2022/11/14 01:58:34;;;;;;;;;;;6.80;99.90;;;;;;5154991;27;19907;-43
2022/11/14 02:00:59;;;;;;;;;;;6.70;99.90;;;;;;5155076;27;20289;-42
2022/11/14 02:03:25;;;;;;;;;;;6.70;99.90;;;;;;5153441;27;20014;-41
2022/11/14 02:05:51;;;;;;;;;;;6.70;99.90;;;;;;5155075;27;19907;-41
2022/11/14 02:08:16;;;;;;;;;;;6.70;99.90;;;;;;5154732;27;19990;-40
2022/11/14 02:10:42;;;;;;;;;;;6.70;99.90;;;;;;5154290;27;19914;-41
2022/11/14 02:13:07;;;;;;;;;;;6.80;99.90;;;;;;5154914;27;19961;-39
2022/11/14 02:15:33;;;;;;;;;;;6.70;99.90;;;;;;5154647;27;19915;-41
2022/11/14 02:17:59;;;;;;;;;;;6.80;99.90;;;;;;5154244;27;20270;-39
2022/11/14 02:20:27;;;;;;;;;;;6.80;99.90;;;;;;5154352;27;19907;-41
2022/11/14 02:22:52;;;;;;;;;;;6.80;99.90;;;;;;5154655;27;19923;-41
2022/11/14 02:25:18;;;;;;;;;;;6.80;99.90;;;;;;5153862;27;19918;-40
2022/11/14 02:27:44;;;;;;;;;;;6.80;99.90;;;;;;5154488;27;19914;-39
2022/11/14 02:30:11;;;;;;;;;;;6.80;99.90;;;;;;5153620;27;19996;-40
2022/11/14 02:32:36;;;;;;;;;;;6.90;99.90;;;;;;5154556;27;19911;-40
2022/11/14 02:35:02;;;;;;;;;;;6.90;99.90;;;;;;5154089;27;19911;-40
2022/11/14 02:37:27;;;;;;;;;;;6.90;99.90;;;;;;5153397;27;19918;-39
2022/11/14 02:39:53;;;;;;;;;;;6.90;99.90;;;;;;5154549;27;19968;-41
2022/11/14 02:42:18;;;;;;;;;;;7.00;99.90;;;;;;5154122;27;20108;-41
2022/11/14 02:44:44;;;;;;;;;;;7.00;99.90;;;;;;5153293;27;20017;-39
2022/11/14 02:47:09;;;;;;;;;;;7.00;99.90;;;;;;5154402;27;20327;-39
2022/11/14 02:49:35;;;;;;;;;;;7.00;99.90;;;;;;5154060;27;19990;-40
2022/11/14 02:52:00;;;;;;;;;;;7.00;99.90;;;;;;5153073;27;20422;-40
2022/11/14 02:54:25;;;;;;;;;;;7.10;99.90;;;;;;5153939;27;20010;-43
2022/11/14 02:56:51;;;;;;;;;;;7.00;99.90;;;;;;5153985;27;19907;-40
2022/11/14 02:59:16;;;;;;;;;;;7.00;99.90;;;;;;5153098;27;19911;-41
2022/11/14 03:01:42;;;;;;;;;;;7.10;99.90;;;;;;5153945;27;19911;-43
2022/11/14 03:04:07;;;;;;;;;;;7.00;99.90;;;;;;5153985;27;19919;-40
2022/11/14 03:06:33;;;;;;;;;;;7.10;99.90;;;;;;5152867;27;20006;-40
2022/11/14 03:08:58;;;;;;;;;;;7.10;99.90;;;;;;5153742;27;19911;-40
2022/11/14 03:11:24;;;;;;;;;;;7.10;99.90;;;;;;5153803;27;20389;-41
2022/11/14 03:13:49;;;;;;;;;;;7.10;99.90;;;;;;5152965;27;20377;-42
2022/11/14 03:16:15;;;;;;;;;;;7.10;99.90;;;;;;5153662;27;19918;-41
2022/11/14 03:18:40;;;;;;;;;;;7.10;99.90;;;;;;5153890;27;19915;-40
2022/11/14 03:21:07;;;;;;;;;;;7.10;99.90;;;;;;5151982;27;19914;-40
2022/11/14 03:23:33;;;;;;;;;;;7.10;99.90;;;;;;5153200;27;19988;-40
2022/11/14 03:25:59;;;;;;;;;;;7.20;99.90;;;;;;5153768;27;19950;-39
2022/11/14 03:28:25;;;;;;;;;;;7.20;99.90;;;;;;5152726;27;20017;-39
2022/11/14 03:30:50;;;;;;;;;;;7.20;99.90;;;;;;5153742;27;20331;-41
2022/11/14 03:33:16;;;;;;;;;;;7.20;99.90;;;;;;5153464;27;19911;-42
2022/11/14 03:35:42;;;;;;;;;;;7.20;99.90;;;;;;5152912;27;19914;-40
2022/11/14 03:38:07;;;;;;;;;;;7.20;99.90;;;;;;5153729;27;19907;-45
2022/11/14 03:40:32;;;;;;;;;;;7.20;99.90;;;;;;5152591;27;19907;-40
2022/11/14 03:42:58;;;;;;;;;;;7.20;99.90;;;;;;5153482;27;19962;-41
2022/11/14 03:45:23;;;;;;;;;;;7.20;99.90;;;;;;5153093;27;19923;-41
2022/11/14 03:47:49;;;;;;;;;;;7.20;99.90;;;;;;5152774;27;19939;-40
2022/11/14 03:50:14;;;;;;;;;;;7.20;99.90;;;;;;5152973;27;19911;-39
2022/11/14 03:52:40;;;;;;;;;;;7.20;99.90;;;;;;5153427;27;19907;-40
2022/11/14 03:55:05;;;;;;;;;;;7.20;99.90;;;;;;5152796;27;19907;-42
2022/11/14 03:57:31;;;;;;;;;;;7.20;99.90;;;;;;5153283;27;19960;-40
2022/11/14 03:59:56;;;;;;;;;;;7.20;99.90;;;;;;5153417;27;19907;-39
2022/11/14 04:02:22;;;;;;;;;;;7.20;99.90;;;;;;5152515;27;19915;-40
2022/11/14 04:04:47;;;;;;;;;;;7.10;99.90;;;;;;5153295;27;19998;-40
2022/11/14 04:07:13;;;;;;;;;;;7.10;99.90;;;;;;5153122;27;19920;-40
2022/11/14 04:09:38;;;;;;;;;;;7.20;99.90;;;;;;5152680;27;19960;-40
2022/11/14 04:12:04;;;;;;;;;;;7.20;99.90;;;;;;5153352;27;19914;-42
2022/11/14 04:14:29;;;;;;;;;;;7.20;99.90;;;;;;5152978;27;19914;-40
2022/11/14 04:16:55;;;;;;;;;;;7.10;99.90;;;;;;5152560;27;19914;-41
2022/11/14 04:19:20;;;;;;;;;;;7.10;99.90;;;;;;5152983;27;20374;-41
2022/11/14 04:21:45;;;;;;;;;;;7.10;99.90;;;;;;5152740;27;19923;-41
2022/11/14 04:24:11;;;;;;;;;;;7.10;99.90;;;;;;5152184;27;20320;-40
2022/11/14 04:26:36;;;;;;;;;;;7.10;99.90;;;;;;5155902;27;19906;-41
2022/11/14 04:29:02;;;;;;;;;;;7.20;99.90;;;;;;5157189;27;19959;-39
2022/11/14 04:31:27;;;;;;;;;;;7.20;99.90;;;;;;5156039;27;20273;-42
2022/11/14 04:33:53;;;;;;;;;;;7.20;99.90;;;;;;5156921;27;19954;-42
2022/11/14 04:36:18;;;;;;;;;;;7.10;99.90;;;;;;5156701;27;19922;-40
2022/11/14 04:38:44;;;;;;;;;;;7.20;99.90;;;;;;5156066;27;19960;-41
2022/11/14 04:41:09;;;;;;;;;;;7.20;99.90;;;;;;5156831;27;19907;-39
2022/11/14 04:43:35;;;;;;;;;;;7.10;99.90;;;;;;5156333;27;20022;-41
2022/11/14 04:46:00;;;;;;;;;;;7.10;99.90;;;;;;5155820;27;20365;-40
2022/11/14 04:48:26;;;;;;;;;;;7.10;99.90;;;;;;5156430;27;19994;-41
2022/11/14 04:50:51;;;;;;;;;;;7.20;99.90;;;;;;5155608;27;20285;-43
2022/11/14 04:53:17;;;;;;;;;;;7.20;99.90;;;;;;5156432;27;19954;-41
2022/11/14 04:55:42;;;;;;;;;;;7.10;99.90;;;;;;5156465;27;19907;-41
2022/11/14 04:58:08;;;;;;;;;;;7.20;99.90;;;;;;5155356;27;19914;-40
2022/11/14 05:00:33;;;;;;;;;;;7.20;99.90;;;;;;5156071;27;19907;-40
2022/11/14 05:02:59;;;;;;;;;;;7.10;99.90;;;;;;5156282;27;19925;-41
2022/11/14 05:05:24;;;;;;;;;;;7.20;99.90;;;;;;5155191;27;19988;-41
2022/11/14 05:07:50;;;;;;;;;;;7.10;99.90;;;;;;5156204;27;20287;-40
2022/11/14 05:10:15;;;;;;;;;;;7.10;99.90;;;;;;5155592;27;19911;-44
2022/11/14 05:12:41;;;;;;;;;;;7.10;99.90;;;;;;5155419;27;19927;-40
2022/11/14 05:15:07;;;;;;;;;;;7.10;99.90;;;;;;5156208;27;20281;-41
2022/11/14 05:17:32;;;;;;;;;;;7.10;99.90;;;;;;5155912;27;19907;-41
2022/11/14 05:19:57;;;;;;;;;;;7.10;99.90;;;;;;5155141;27;19911;-40
2022/11/14 05:22:23;;;;;;;;;;;7.10;99.90;;;;;;5155544;27;19915;-40
2022/11/14 05:24:48;;;;;;;;;;;7.10;99.90;;;;;;5155974;27;19921;-40
2022/11/14 05:27:14;;;;;;;;;;;7.10;99.90;;;;;;5154735;27;19976;-42
2022/11/14 05:29:39;;;;;;;;;;;7.10;99.90;;;;;;5155423;27;19971;-40
2022/11/14 05:32:05;;;;;;;;;;;7.10;99.90;;;;;;5155846;27;19922;-41
2022/11/14 05:34:30;;;;;;;;;;;7.10;99.90;;;;;;5154662;27;20010;-41
2022/11/14 05:36:56;;;;;;;;;;;7.10;99.90;;;;;;5154441;27;19908;-42
2022/11/14 05:39:21;;;;;;;;;;;7.10;99.90;;;;;;5155315;27;19941;-41
2022/11/14 05:41:47;;;;;;;;;;;7.10;99.90;;;;;;5154764;27;20246;-40
2022/11/14 05:44:12;;;;;;;;;;;7.00;99.90;;;;;;5155046;27;19914;-41
2022/11/14 05:46:38;;;;;;;;;;;7.00;99.90;;;;;;5155485;27;19985;-40
2022/11/14 05:49:03;;;;;;;;;;;7.00;99.90;;;;;;5154650;27;19907;-44
2022/11/14 05:51:29;;;;;;;;;;;7.00;99.90;;;;;;5155162;27;20312;-40
2022/11/14 05:53:54;;;;;;;;;;;7.00;99.90;;;;;;5155323;27;19907;-40
2022/11/14 05:56:20;;;;;;;;;;;7.00;99.90;;;;;;5154254;27;19907;-41
2022/11/14 05:58:45;;;;;;;;;;;7.00;99.90;;;;;;5154644;27;20357;-40
2022/11/14 06:01:12;;;;;;;;;;;7.00;99.90;;;;;;5153948;27;19914;-42
2022/11/14 06:03:39;;;;;;;;;;;7.00;99.90;;;;;;5154970;27;19951;-41
2022/11/14 06:06:06;;;;;;;;;;;7.00;99.90;;;;;;5154952;27;20309;-41
2022/11/14 06:08:32;;;;;;;;;;;7.00;99.90;;;;;;5153996;27;19907;-40
2022/11/14 06:11:11;;;;;;;;;;;7.00;99.90;;;;;;5154940;27;19925;-44
2022/11/14 06:13:37;;;;;;;;;;;7.00;99.90;;;;;;5154934;27;19907;-40
2022/11/14 06:16:08;;;;;;;;;;;6.90;99.90;;;;;;5154034;27;19907;-41
2022/11/14 06:18:34;;;;;;;;;;;6.90;99.90;;;;;;5154166;27;20379;-44
2022/11/14 06:21:04;;;;;;;;;;;7.00;99.90;;;;;;5154825;27;19914;-42
2022/11/14 06:23:29;;;;;;;;;;;6.90;99.90;;;;;;5153798;27;19922;-40
2022/11/14 06:26:02;;;;;;;;;;;6.90;99.90;;;;;;5154704;27;19990;-42
2022/11/14 06:28:27;;;;;;;;;;;6.90;99.90;;;;;;5154412;27;20025;-40
2022/11/14 06:30:57;;;;;;;;;;;6.90;99.90;;;;;;5153950;27;20416;-40
2022/11/14 06:33:23;;;;;;;;;;;6.90;99.90;;;;;;5154452;27;19914;-40
2022/11/14 06:35:48;;;;;;;;;;;6.90;99.90;;;;;;5154619;27;19907;-41
2022/11/14 06:38:13;;;;;;;;;;;6.80;99.90;;;;;;5153148;27;19993;-42
2022/11/14 06:40:39;;;;;;;;;;;6.80;99.90;;;;;;5154369;27;19914;-42
2022/11/14 06:43:04;;;;;;;;;;;6.80;99.90;;;;;;5154434;27;19923;-41
2022/11/14 06:45:30;;;;;;;;;;;6.70;99.90;;;;;;5153099;27;20270;-40
2022/11/14 06:47:58;;;;;;;;;;;6.70;99.90;;;;;;5153734;27;19911;-40
2022/11/14 06:50:24;;;;;;;;;;;6.70;99.90;;;;;;5153129;27;19907;-42
2022/11/14 06:52:49;;;;;;;;;;;6.70;99.90;;;;;;5154181;27;19914;-42
2022/11/14 06:55:15;;;;;;;;;;;6.70;99.90;;;;;;5153941;27;19959;-40
2022/11/14 06:57:40;;;;;;;;;;;6.70;99.90;;;;;;5153217;27;19907;-42
2022/11/14 07:00:06;;;;;;;;;;;6.60;99.90;;;;;;5154018;27;20033;-39
2022/11/14 07:02:32;;;;;;;;;;;6.60;99.90;;;;;;5153355;27;19950;-39
2022/11/14 07:04:57;;;;;;;;;;;6.60;99.90;;;;;;5153307;27;20269;-44
2022/11/14 07:07:23;;;;;;;;;;;6.60;99.90;;;;;;5152658;27;19952;-40
2022/11/14 07:09:48;;;;;;;;;;;6.60;99.90;;;;;;5153407;27;19918;-41
2022/11/14 07:12:14;;;;;;;;;;;6.60;99.90;;;;;;5152891;27;19993;-42
2022/11/14 07:14:39;;;;;;;;;;;6.60;99.90;;;;;;5153212;27;19926;-40
2022/11/14 07:17:05;;;;;;;;;;;6.60;99.90;;;;;;5154061;27;20350;-40
2022/11/14 07:19:30;;;;;;;;;;;6.50;99.90;;;;;;5152783;27;19911;-42
2022/11/14 07:21:55;;;;;;;;;;;6.50;99.90;;;;;;5153859;27;19926;-40
2022/11/14 07:24:21;;;;;;;;;;;6.50;99.90;;;;;;5153555;27;20353;-41
2022/11/14 07:26:46;;;;;;;;;;;6.60;99.90;;;;;;5152969;27;19918;-42
2022/11/14 07:29:12;;;;;;;;;;;6.60;99.90;;;;;;5153672;27;19913;-40
2022/11/14 07:31:39;;;;;;;;;;;6.60;99.90;;;;;;5153661;27;19950;-40
2022/11/14 07:34:05;;;;;;;;;;;6.50;99.90;;;;;;5153175;27;19907;-40
2022/11/14 07:36:30;;;;;;;;;;;6.60;99.90;;;;;;5153545;27;20334;-41
2022/11/14 07:38:56;;;;;;;;;;;6.60;99.90;;;;;;5152055;27;19917;-42
2022/11/14 07:41:21;;;;;;;;;;;6.60;99.90;;;;;;5151298;27;19915;-41
2022/11/14 07:43:47;;;;;;;;;;;6.60;99.90;;;;;;5151986;27;19946;-41
2022/11/14 07:46:14;;;;;;;;;;;6.70;99.90;;;;;;5151834;27;19970;-40
2022/11/14 07:48:40;;;;;;;;;;;6.70;99.90;;;;;;5152759;27;19913;-39
2022/11/14 07:51:06;;;;;;;;;;;6.70;99.90;;;;;;5153559;27;19912;-41
2022/11/14 07:53:32;;;;;;;;;;;6.70;99.90;;;;;;5153212;27;19927;-45
2022/11/14 07:56:01;;;;;;;;;;;6.80;99.90;;;;;;5152990;27;19993;-41
2022/11/14 07:58:26;;;;;;;;;;;6.80;99.90;;;;;;5153206;27;19911;-42
2022/11/14 08:00:52;;;;;;;;;;;6.80;99.90;;;;;;5153248;27;20362;-42
2022/11/14 08:03:17;;;;;;;;;;;6.80;99.90;;;;;;5156994;27;19915;-40
2022/11/14 08:05:43;;;;;;;;;;;6.80;99.90;;;;;;5157504;27;19918;-41
2022/11/14 08:08:08;;;;;;;;;;;6.90;99.90;;;;;;5156484;27;19907;-42
2022/11/14 08:10:33;;;;;;;;;;;6.80;99.90;;;;;;5157055;27;19907;-42
2022/11/14 08:13:00;;;;;;;;;;;6.80;99.90;;;;;;5157333;27;19911;-41
2022/11/14 08:15:25;;;;;;;;;;;6.80;99.90;;;;;;5156226;27;19915;-45
2022/11/14 08:17:51;;;;;;;;;;;6.90;99.90;;;;;;5157156;27;19911;-41
2022/11/14 08:20:16;;;;;;;;;;;6.90;99.90;;;;;;5156794;27;19911;-42
2022/11/14 08:22:42;;;;;;;;;;;6.90;99.90;;;;;;5156144;27;19915;-42
2022/11/14 08:25:07;;;;;;;;;;;6.90;99.90;;;;;;5156019;27;19915;-43
2022/11/14 08:27:33;;;;;;;;;;;6.90;99.90;;;;;;5156591;27;19911;-43
2022/11/14 08:29:58;;;;;;;;;;;7.00;99.90;;;;;;5156313;27;19975;-42
2022/11/14 08:32:24;;;;;;;;;;;6.90;99.90;;;;;;5156678;27;19907;-40
2022/11/14 08:34:49;;;;;;;;;;;7.00;99.90;;;;;;5156924;27;20353;-44
2022/11/14 08:37:15;;;;;;;;;;;7.00;99.90;;;;;;5155860;27;19921;-40
2022/11/14 08:39:40;;;;;;;;;;;7.00;99.90;;;;;;5156728;27;19907;-41
2022/11/14 08:42:06;;;;;;;;;;;7.10;99.90;;;;;;5156721;27;20325;-40
2022/11/14 08:44:31;;;;;;;;;;;7.10;99.90;;;;;;5155267;27;19919;-40
2022/11/14 08:46:59;;;;;;;;;;;7.20;99.90;;;;;;5156713;27;20361;-39
2022/11/14 08:49:25;;;;;;;;;;;7.10;99.90;;;;;;5156450;27;19908;-41
2022/11/14 08:51:50;;;;;;;;;;;7.20;99.90;;;;;;5155726;27;19915;-41
2022/11/14 08:54:16;;;;;;;;;;;7.20;99.90;;;;;;5156304;27;19961;-41
2022/11/14 08:56:41;;;;;;;;;;;7.20;99.90;;;;;;5156395;27;19914;-46
2022/11/14 08:59:07;;;;;;;;;;;7.20;99.90;;;;;;5155331;27;19911;-40
2022/11/14 09:01:32;;;;;;;;;;;7.30;99.90;;;;;;5154740;27;19915;-43
2022/11/14 09:03:58;;;;;;;;;;;7.30;99.90;;;;;;5151753;27;19911;-42
2022/11/14 09:06:24;;;;;;;;;;;7.30;99.90;;;;;;5152665;27;19937;-42
2022/11/14 09:08:49;;;;;;;;;;;7.40;99.90;;;;;;5148914;27;19979;-40
2022/11/14 09:11:15;;;;;;;;;;;7.40;99.90;;;;;;5153410;27;20429;-40
2022/11/14 09:13:40;;;;;;;;;;;7.40;99.90;;;;;;5153383;27;19972;-40
2022/11/14 09:16:06;;;;;;;;;;;7.40;99.90;;;;;;5154461;27;19918;-40
2022/11/14 09:18:31;;;;;;;;;;;7.50;99.90;;;;;;5153946;27;20369;-42
2022/11/14 09:21:00;;;;;;;;;;;7.50;99.90;;;;;;5155144;27;20005;-41
2022/11/14 09:23:26;;;;;;;;;;;7.50;99.90;;;;;;5154609;27;20281;-40
2022/11/14 09:25:53;;;;;;;;;;;7.60;99.90;;;;;;5153306;27;19907;-42
2022/11/14 09:28:19;;;;;;;;;;;7.60;99.90;;;;;;5155304;27;19911;-40
2022/11/14 09:30:44;;;;;;;;;;;7.50;99.90;;;;;;5155065;27;20370;-40
2022/11/14 09:33:10;;;;;;;;;;;7.60;99.90;;;;;;5153989;27;19907;-43
2022/11/14 09:35:36;;;;;;;;;;;7.60;99.90;;;;;;5155168;27;19907;-40
2022/11/14 09:38:03;;;;;;;;;;;7.60;99.90;;;;;;5154775;27;20419;-40
2022/11/14 09:40:30;;;;;;;;;;;7.60;99.90;;;;;;5153703;27;19948;-40
2022/11/14 09:43:04;;;;;;;;;;;7.60;99.90;;;;;;5153907;27;19930;-45
2022/11/14 09:45:30;;;;;;;;;;;7.60;99.90;;;;;;5154221;27;19927;-41
2022/11/14 09:48:03;;;;;;;;;;;7.60;99.90;;;;;;5153963;27;20535;-41
2022/11/14 09:50:31;;;;;;;;;;;7.70;99.90;;;;;;5154480;27;20388;-41
2022/11/14 09:53:10;;;;;;;;;;;7.80;99.90;;;;;;5154114;27;19985;-43
2022/11/14 09:55:36;;;;;;;;;;;8.00;99.90;;;;;;5154921;27;19907;-40
2022/11/14 09:58:02;;;;;;;;;;;8.00;99.90;;;;;;5154408;27;19911;-41
2022/11/14 10:00:32;;;;;;;;;;;8.10;99.90;;;;;;5153475;27;19997;-40
2022/11/14 10:03:22;;;;;;;;;;;8.20;99.90;;;;;;5154368;27;20377;-41
2022/11/14 10:06:17;;;;;;;;;;;8.30;99.90;;;;;;5154311;27;20432;-40
2022/11/14 10:08:51;;;;;;;;;;;8.20;99.90;;;;;;5153295;27;19914;-40
2022/11/14 10:11:38;;;;;;;;;;;8.10;99.90;;;;;;5153742;27;20374;-41
2022/11/14 10:14:12;;;;;;;;;;;8.10;99.90;;;;;;5131078;27;19907;-41
2022/11/14 10:16:56;;;;;;;;;;;8.10;99.90;;;;;;5151877;27;19907;-41
2022/11/14 10:19:24;;;;;;;;;;;8.00;99.90;;;;;;5152053;27;19911;-45
2022/11/14 10:22:05;;;;;;;;;;;8.00;99.90;;;;;;5152535;27;19922;-40
2022/11/14 10:24:40;;;;;;;;;;;8.10;99.90;;;;;;5152007;27;19917;-39
2022/11/14 10:27:24;;;;;;;;;;;8.20;99.90;;;;;;5153970;27;20307;-40
2022/11/14 10:30:01;;;;;;;;;;;8.20;99.90;;;;;;5152860;27;19959;-41
2022/11/14 10:32:26;;;;;;;;;;;8.20;99.90;;;;;;5153294;27;20289;-41
2022/11/14 10:35:00;;;;;;;;;;;8.30;99.90;;;;;;5153227;27;19913;-39
2022/11/14 10:37:26;;;;;;;;;;;8.40;99.90;;;;;;5152546;27;19912;-44
2022/11/14 10:39:59;;;;;;;;;;;8.60;99.90;;;;;;5153532;27;19936;-40
2022/11/14 10:42:28;;;;;;;;;;;8.80;99.90;;;;;;5151641;27;19923;-39
2022/11/14 10:44:54;;;;;;;;;;;9.00;99.90;;;;;;5151735;27;19930;-43
2022/11/14 10:47:21;;;;;;;;;;;9.10;99.90;;;;;;5152211;27;19912;-40
2022/11/14 10:49:49;;;;;;;;;;;9.30;99.90;;;;;;5151908;27;19919;-39
2022/11/14 10:52:16;;;;;;;;;;;9.40;99.90;;;;;;5152584;27;19911;-41
2022/11/14 10:54:47;;;;;;;;;;;9.50;99.90;;;;;;5152574;27;20404;-41
2022/11/14 10:57:17;;;;;;;;;;;9.50;99.90;;;;;;5151402;27;19914;-43
2022/11/14 10:59:42;;;;;;;;;;;9.60;99.90;;;;;;5153112;27;20421;-41
2022/11/14 11:02:09;;;;;;;;;;;9.70;99.90;;;;;;5153205;27;19930;-43
2022/11/14 11:04:35;;;;;;;;;;;9.80;99.90;;;;;;5151685;27;19915;-40
2022/11/14 11:07:07;;;;;;;;;;;9.90;99.90;;;;;;5153957;27;20454;-41
2022/11/14 11:12:24;;;;;;;;;;;10.20;99.90;;;;;;5151125;27;19960;-42
2022/11/14 11:15:06;;;;;;;;;;;10.20;99.90;;;;;;5149690;27;19907;-40
2022/11/14 11:17:31;;;;;;;;;;;10.30;99.90;;;;;;5152107;27;20266;-40
2022/11/14 11:20:17;;;;;;;;;;;10.30;99.90;;;;;;5150704;27;20388;-43
2022/11/14 11:22:42;;;;;;;;;;;10.30;99.90;;;;;;5145440;27;20013;-45
2022/11/14 11:25:21;;;;;;;;;;;10.30;99.90;;;;;;5150318;27;20009;-45
2022/11/14 11:28:02;;;;;;;;;;;10.30;99.90;;;;;;5152856;27;19917;-40
2022/11/14 11:30:27;;;;;;;;;;;10.30;99.90;;;;;;5152753;27;19911;-41
2022/11/14 11:32:53;;;;;;;;;;;10.30;99.90;;;;;;5151702;27;19911;-41
2022/11/14 11:35:18;;;;;;;;;;;10.40;99.90;;;;;;5154540;27;19907;-42
2022/11/14 11:37:53;;;;;;;;;;;10.40;99.90;;;;;;5156947;27;19907;-41
2022/11/14 11:40:21;;;;;;;;;;;10.40;99.90;;;;;;5156179;27;19911;-41
2022/11/14 11:42:59;;;;;;;;;;;10.50;99.90;;;;;;5156886;27;19967;-41
2022/11/14 11:45:24;;;;;;;;;;;10.50;99.90;;;;;;5155984;27;19926;-40
2022/11/14 11:47:57;;;;;;;;;;;10.60;99.90;;;;;;5156230;27;19907;-44
2022/11/14 11:50:23;;;;;;;;;;;10.60;99.90;;;;;;5156614;27;19907;-41
2022/11/14 11:52:54;;;;;;;;;;;10.70;99.90;;;;;;5156308;27;20331;-41
2022/11/14 11:55:23;;;;;;;;;;;10.80;99.90;;;;;;5155465;27;19915;-44
2022/11/14 11:58:02;;;;;;;;;;;10.80;99.90;;;;;;5154904;27;19915;-42
2022/11/14 12:00:28;;;;;;;;;;;10.90;99.90;;;;;;5153691;27;20360;-42
2022/11/14 12:02:54;;;;;;;;;;;11.00;99.90;;;;;;5154599;27;19923;-42
2022/11/14 12:05:25;;;;;;;;;;;11.00;99.90;;;;;;5154048;27;19911;-43
2022/11/14 12:07:57;;;;;;;;;;;11.10;99.90;;;;;;5154038;27;19975;-43
2022/11/14 12:10:24;;;;;;;;;;;11.10;99.90;;;;;;5154595;27;19994;-42
2022/11/14 12:12:52;;;;;;;;;;;11.10;99.90;;;;;;5156109;27;19907;-45
2022/11/14 12:15:41;;;;;;;;;;;11.10;99.90;;;;;;5154951;27;20381;-42
2022/11/14 12:18:25;;;;;;;;;;;11.10;99.90;;;;;;5156323;27;19913;-40
2022/11/14 12:21:10;;;;;;;;;;;11.20;99.90;;;;;;5155595;27;19907;-43
2022/11/14 12:23:39;;;;;;;;;;;11.20;99.90;;;;;;5156219;27;20383;-41
2022/11/14 12:26:10;;;;;;;;;;;11.30;99.90;;;;;;5155077;27;19954;-41
2022/11/14 12:28:59;;;;;;;;;;;11.30;99.90;;;;;;5155467;27;19911;-42
2022/11/14 12:31:30;;;;;;;;;;;11.40;99.90;;;;;;5156219;27;19934;-40
2022/11/14 12:33:57;;;;;;;;;;;11.40;99.90;;;;;;5155694;27;19964;-40
2022/11/14 12:36:27;;;;;;;;;;;11.50;99.90;;;;;;5154533;27;19962;-41
2022/11/14 12:38:53;;;;;;;;;;;11.50;99.90;;;;;;5156218;27;19907;-40
2022/11/14 12:41:23;;;;;;;;;;;11.50;99.90;;;;;;5155963;27;19929;-40
2022/11/14 12:43:48;;;;;;;;;;;11.60;99.90;;;;;;5155049;27;19919;-42
2022/11/14 12:46:14;;;;;;;;;;;11.70;99.90;;;;;;5154155;27;19919;-45
2022/11/14 12:48:39;;;;;;;;;;;11.70;99.90;;;;;;5156007;27;20254;-41
2022/11/14 12:51:25;;;;;;;;;;;11.80;99.90;;;;;;5154975;27;20294;-41
2022/11/14 12:53:57;;;;;;;;;;;11.80;99.90;;;;;;5155170;27;19930;-41
2022/11/14 12:56:29;;;;;;;;;;;11.80;99.90;;;;;;5136786;27;20386;-40
2022/11/14 12:59:00;;;;;;;;;;;11.80;99.90;;;;;;5155068;27;19963;-40
2022/11/14 13:01:26;;;;;;;;;;;11.90;99.90;;;;;;5155517;27;19910;-47
2022/11/14 13:03:52;;;;;;;;;;;11.90;99.90;;;;;;5146763;27;20074;-45
2022/11/14 13:06:29;;;;;;;;;;;12.00;99.90;;;;;;5147964;27;20374;-41
2022/11/14 13:09:04;;;;;;;;;;;12.00;99.90;;;;;;5140547;27;19918;-46
2022/11/14 13:21:44;;;;;;;;;;;11.90;99.90;;;;;;5143899;27;19918;-42
2022/11/14 13:22:42;;;;;;;;;;;12.90;99.90;;;;;;5134542;27;19964;-41
2022/11/14 13:25:08;;;;;;;;;;;13.10;99.90;;;;;;5144619;27;20366;-42
2022/11/14 13:27:34;;;;;;;;;;;13.40;99.90;;;;;;5154788;27;19922;-42
2022/11/14 13:30:01;;;;;;;;;;;13.50;99.90;;;;;;5155171;27;19914;-44
2022/11/14 13:32:41;;;;;;;;;;;13.50;99.90;;;;;;5154113;27;19911;-44
2022/11/14 13:35:25;;;;;;;;;;;13.40;99.90;;;;;;5154681;27;20543;-42
2022/11/14 13:37:51;;;;;;;;;;;13.20;99.90;;;;;;5154848;27;19954;-41
2022/11/14 13:40:16;;;;;;;;;;;13.30;99.90;;;;;;5153535;27;20011;-42
2022/11/14 13:42:57;;;;;;;;;;;13.30;99.90;;;;;;5154693;27;19973;-42
2022/11/14 13:45:41;;;;;;;;;;;13.40;99.90;;;;;;5153672;27;19961;-44
2022/11/14 13:48:31;;;;;;;;;;;13.50;99.90;;;;;;5154534;27;19933;-41
2022/11/14 13:50:59;;;;;;;;;;;13.60;99.90;;;;;;5154461;27;20018;-42
2022/11/14 13:53:29;;;;;;;;;;;13.60;99.90;;;;;;5153485;27;20266;-41
2022/11/14 13:55:58;;;;;;;;;;;13.80;99.90;;;;;;5154095;27;19915;-41
2022/11/14 13:58:29;;;;;;;;;;;13.90;99.90;;;;;;5152942;27;19907;-43
2022/11/14 14:01:06;;;;;;;;;;;14.00;99.90;;;;;;5153742;27;20002;-44
2022/11/14 14:03:39;;;;;;;;;;;14.10;99.90;;;;;;5154091;27;20381;-43
2022/11/14 14:06:17;;;;;;;;;;;14.20;99.90;;;;;;5154331;27;19966;-45
2022/11/14 14:08:58;;;;;;;;;;;14.20;99.90;;;;;;5153553;27;19976;-40
2022/11/14 14:11:24;;;;;;;;;;;14.30;99.90;;;;;;5154378;27;19914;-41
2022/11/14 14:13:58;;;;;;;;;;;14.30;99.90;;;;;;5153275;27;19956;-41
2022/11/14 14:16:42;;;;;;;;;;;14.40;99.90;;;;;;5153948;27;19918;-42
2022/11/14 14:19:17;;;;;;;;;;;14.50;99.90;;;;;;5153798;27;19946;-44
2022/11/14 14:21:42;;;;;;;;;;;14.50;99.90;;;;;;5152955;27;19954;-42
2022/11/14 14:24:16;;;;;;;;;;;14.50;99.90;;;;;;5153286;27;20022;-42
2022/11/14 14:26:41;;;;;;;;;;;14.50;99.90;;;;;;5153588;27;20288;-41
2022/11/14 14:29:26;;;;;;;;;;;14.50;99.90;;;;;;5153160;27;19911;-41
2022/11/14 14:31:52;;;;;;;;;;;14.40;99.90;;;;;;5153886;27;19908;-41
2022/11/14 14:34:26;;;;;;;;;;;14.40;99.90;;;;;;5152688;27;19917;-43
2022/11/14 14:36:53;;;;;;;;;;;14.30;99.90;;;;;;5151796;27;20138;-43
2022/11/14 14:39:25;;;;;;;;;;;14.30;99.90;;;;;;5152319;27;19914;-42
2022/11/14 14:41:52;;;;;;;;;;;14.20;99.90;;;;;;5152466;27;19911;-41